sensor_id;sensor_type;location;lat;lon;timestamp;temperature;humidity
1994;DHT22;998;49.906;10.908;2022-09-30T00:01:12;9.50;99.90
1994;DHT22;998;49.906;10.908;2022-09-30T00:03:39;9.60;99.90
1994;DHT22;998;49.906;10.908;2022-09-30T00:06:06;9.50;99.90
1994;DHT22;998;49.906;10.908;2022-09-30T00:08:34;9.60;99.90
1994;DHT22;998;49.906;10.908;2022-09-30T00:11:02;9.50;99.90
1994;DHT22;998;49.906;10.908;2022-09-30T00:13:38;9.40;99.90
1994;DHT22;998;49.906;10.908;2022-09-30T00:16:08;9.40;99.90
1994;DHT22;998;49.906;10.908;2022-09-30T00:18:36;9.30;99.90
1994;DHT22;998;49.906;10.908;2022-09-30T00:21:03;9.30;99.90
1994;DHT22;998;49.906;10.908;2022-09-30T00:23:30;9.30;99.90
1994;DHT22;998;49.906;10.908;2022-09-30T00:25:59;9.30;99.90
1994;DHT22;998;49.906;10.908;2022-09-30T00:28:26;9.30;99.90
1994;DHT22;998;49.906;10.908;2022-09-30T00:30:53;9.30;99.90
1994;DHT22;998;49.906;10.908;2022-09-30T00:33:25;9.20;99.90
1994;DHT22;998;49.906;10.908;2022-09-30T00:35:51;9.20;99.90
1994;DHT22;998;49.906;10.908;2022-09-30T00:38:18;9.10;99.90
1994;DHT22;998;49.906;10.908;2022-09-30T00:40:45;8.90;99.90
1994;DHT22;998;49.906;10.908;2022-09-30T00:43:14;9.00;99.90
1994;DHT22;998;49.906;10.908;2022-09-30T00:45:45;9.00;99.90
1994;DHT22;998;49.906;10.908;2022-09-30T00:48:17;9.00;99.90
1994;DHT22;998;49.906;10.908;2022-09-30T00:50:47;9.00;99.90
1994;DHT22;998;49.906;10.908;2022-09-30T00:53:22;9.00;99.90
1994;DHT22;998;49.906;10.908;2022-09-30T00:55:55;9.00;99.90
1994;DHT22;998;49.906;10.908;2022-09-30T00:58:26;8.90;99.90
1994;DHT22;998;49.906;10.908;2022-09-30T01:00:54;8.90;99.90
1994;DHT22;998;49.906;10.908;2022-09-30T01:03:22;8.70;99.90
1994;DHT22;998;49.906;10.908;2022-09-30T01:05:51;8.50;99.90
1994;DHT22;998;49.906;10.908;2022-09-30T01:08:20;8.60;99.90
1994;DHT22;998;49.906;10.908;2022-09-30T01:10:47;8.70;99.90
1994;DHT22;998;49.906;10.908;2022-09-30T01:13:16;8.70;99.90
1994;DHT22;998;49.906;10.908;2022-09-30T01:16:00;8.70;99.90
1994;DHT22;998;49.906;10.908;2022-09-30T01:18:38;8.70;99.90
1994;DHT22;998;49.906;10.908;2022-09-30T01:21:32;8.70;99.90
1994;DHT22;998;49.906;10.908;2022-09-30T01:24:26;8.70;99.90
1994;DHT22;998;49.906;10.908;2022-09-30T01:27:24;8.60;99.90
1994;DHT22;998;49.906;10.908;2022-09-30T01:30:15;8.60;99.90
1994;DHT22;998;49.906;10.908;2022-09-30T01:33:03;8.60;99.90
1994;DHT22;998;49.906;10.908;2022-09-30T01:35:49;8.40;99.90
1994;DHT22;998;49.906;10.908;2022-09-30T01:38:25;8.30;99.90
1994;DHT22;998;49.906;10.908;2022-09-30T01:41:00;8.40;99.90
1994;DHT22;998;49.906;10.908;2022-09-30T01:43:38;8.50;99.90
1994;DHT22;998;49.906;10.908;2022-09-30T01:46:16;8.50;99.90
1994;DHT22;998;49.906;10.908;2022-09-30T01:48:52;8.20;99.90
1994;DHT22;998;49.906;10.908;2022-09-30T01:51:28;8.10;99.90
1994;DHT22;998;49.906;10.908;2022-09-30T01:53:59;8.00;99.90
1994;DHT22;998;49.906;10.908;2022-09-30T01:56:33;8.10;99.90
1994;DHT22;998;49.906;10.908;2022-09-30T01:59:05;8.10;99.90
1994;DHT22;998;49.906;10.908;2022-09-30T02:01:36;8.20;99.90
1994;DHT22;998;49.906;10.908;2022-09-30T02:04:08;8.30;99.90
1994;DHT22;998;49.906;10.908;2022-09-30T02:06:40;8.20;99.90
1994;DHT22;998;49.906;10.908;2022-09-30T02:09:10;8.10;99.90
1994;DHT22;998;49.906;10.908;2022-09-30T02:11:40;7.80;99.90
1994;DHT22;998;49.906;10.908;2022-09-30T02:14:11;8.00;99.90
1994;DHT22;998;49.906;10.908;2022-09-30T02:16:42;8.00;99.90
1994;DHT22;998;49.906;10.908;2022-09-30T02:19:17;8.00;99.90
1994;DHT22;998;49.906;10.908;2022-09-30T02:21:49;8.10;99.90
1994;DHT22;998;49.906;10.908;2022-09-30T02:24:18;8.10;99.90
1994;DHT22;998;49.906;10.908;2022-09-30T02:26:51;8.20;99.90
1994;DHT22;998;49.906;10.908;2022-09-30T02:29:22;8.00;99.90
1994;DHT22;998;49.906;10.908;2022-09-30T02:31:52;7.90;99.90
1994;DHT22;998;49.906;10.908;2022-09-30T02:34:23;8.00;99.90
1994;DHT22;998;49.906;10.908;2022-09-30T02:36:56;7.90;99.90
1994;DHT22;998;49.906;10.908;2022-09-30T02:39:30;8.00;99.90
1994;DHT22;998;49.906;10.908;2022-09-30T02:42:03;7.80;99.90
1994;DHT22;998;49.906;10.908;2022-09-30T02:44:33;7.90;99.90
1994;DHT22;998;49.906;10.908;2022-09-30T02:47:10;7.90;99.90
1994;DHT22;998;49.906;10.908;2022-09-30T02:49:45;7.90;99.90
1994;DHT22;998;49.906;10.908;2022-09-30T02:52:22;7.90;99.90
1994;DHT22;998;49.906;10.908;2022-09-30T02:55:00;7.80;99.90
1994;DHT22;998;49.906;10.908;2022-09-30T02:57:35;8.00;99.90
1994;DHT22;998;49.906;10.908;2022-09-30T03:00:06;8.00;99.90
1994;DHT22;998;49.906;10.908;2022-09-30T03:02:33;8.00;99.90
1994;DHT22;998;49.906;10.908;2022-09-30T03:05:02;8.10;99.90
1994;DHT22;998;49.906;10.908;2022-09-30T03:07:29;8.10;99.90
1994;DHT22;998;49.906;10.908;2022-09-30T03:09:56;8.10;99.90
1994;DHT22;998;49.906;10.908;2022-09-30T03:12:33;8.00;99.90
1994;DHT22;998;49.906;10.908;2022-09-30T03:15:26;8.00;99.90
1994;DHT22;998;49.906;10.908;2022-09-30T03:18:19;8.10;99.90
1994;DHT22;998;49.906;10.908;2022-09-30T03:21:02;7.90;99.90
1994;DHT22;998;49.906;10.908;2022-09-30T03:23:43;7.90;99.90
1994;DHT22;998;49.906;10.908;2022-09-30T03:26:25;7.90;99.90
1994;DHT22;998;49.906;10.908;2022-09-30T03:29:05;7.80;99.90
1994;DHT22;998;49.906;10.908;2022-09-30T03:31:39;7.70;99.90
1994;DHT22;998;49.906;10.908;2022-09-30T03:34:14;7.80;99.90
1994;DHT22;998;49.906;10.908;2022-09-30T03:36:52;7.70;99.90
1994;DHT22;998;49.906;10.908;2022-09-30T03:39:25;7.80;99.90
1994;DHT22;998;49.906;10.908;2022-09-30T03:41:54;7.90;99.90
1994;DHT22;998;49.906;10.908;2022-09-30T03:44:27;8.00;99.90
1994;DHT22;998;49.906;10.908;2022-09-30T03:46:58;8.00;99.90
1994;DHT22;998;49.906;10.908;2022-09-30T03:49:28;8.00;99.90
1994;DHT22;998;49.906;10.908;2022-09-30T03:51:59;7.90;99.90
1994;DHT22;998;49.906;10.908;2022-09-30T03:54:26;8.00;99.90
1994;DHT22;998;49.906;10.908;2022-09-30T03:56:54;7.90;99.90
1994;DHT22;998;49.906;10.908;2022-09-30T03:59:23;7.80;99.90
1994;DHT22;998;49.906;10.908;2022-09-30T04:01:52;7.60;99.90
1994;DHT22;998;49.906;10.908;2022-09-30T04:04:19;7.60;99.90
1994;DHT22;998;49.906;10.908;2022-09-30T04:06:46;7.80;99.90
1994;DHT22;998;49.906;10.908;2022-09-30T04:09:14;7.70;99.90
1994;DHT22;998;49.906;10.908;2022-09-30T04:11:41;7.70;99.90
1994;DHT22;998;49.906;10.908;2022-09-30T04:14:08;7.70;99.90
1994;DHT22;998;49.906;10.908;2022-09-30T04:16:35;7.70;99.90
1994;DHT22;998;49.906;10.908;2022-09-30T04:19:02;7.60;99.90
1994;DHT22;998;49.906;10.908;2022-09-30T04:21:29;7.70;99.90
1994;DHT22;998;49.906;10.908;2022-09-30T04:23:56;7.70;99.90
1994;DHT22;998;49.906;10.908;2022-09-30T04:26:24;7.70;99.90
1994;DHT22;998;49.906;10.908;2022-09-30T04:28:51;7.60;99.90
1994;DHT22;998;49.906;10.908;2022-09-30T04:31:19;7.70;99.90
1994;DHT22;998;49.906;10.908;2022-09-30T04:33:46;7.70;99.90
1994;DHT22;998;49.906;10.908;2022-09-30T04:36:13;7.80;99.90
1994;DHT22;998;49.906;10.908;2022-09-30T04:38:40;7.80;99.90
1994;DHT22;998;49.906;10.908;2022-09-30T04:41:07;7.80;99.90
1994;DHT22;998;49.906;10.908;2022-09-30T04:57:35;7.70;99.90
1994;DHT22;998;49.906;10.908;2022-09-30T05:00:34;7.70;99.90
1994;DHT22;998;49.906;10.908;2022-09-30T05:03:40;7.60;99.90
1994;DHT22;998;49.906;10.908;2022-09-30T05:06:28;7.60;99.90
1994;DHT22;998;49.906;10.908;2022-09-30T05:30:03;7.60;99.90
1994;DHT22;998;49.906;10.908;2022-09-30T05:32:35;7.40;99.90
1994;DHT22;998;49.906;10.908;2022-09-30T05:35:02;7.50;99.90
1994;DHT22;998;49.906;10.908;2022-09-30T05:37:29;7.60;99.90
1994;DHT22;998;49.906;10.908;2022-09-30T05:39:56;7.60;99.90
1994;DHT22;998;49.906;10.908;2022-09-30T05:42:25;7.60;99.90
1994;DHT22;998;49.906;10.908;2022-09-30T05:44:53;7.20;99.90
1994;DHT22;998;49.906;10.908;2022-09-30T05:47:20;7.30;99.90
1994;DHT22;998;49.906;10.908;2022-09-30T05:49:49;7.40;99.90
1994;DHT22;998;49.906;10.908;2022-09-30T05:52:16;7.50;99.90
1994;DHT22;998;49.906;10.908;2022-09-30T05:54:43;7.30;99.90
1994;DHT22;998;49.906;10.908;2022-09-30T05:57:10;7.00;99.90
1994;DHT22;998;49.906;10.908;2022-09-30T05:59:39;6.80;99.90
1994;DHT22;998;49.906;10.908;2022-09-30T06:02:07;6.90;99.90
1994;DHT22;998;49.906;10.908;2022-09-30T06:04:34;7.00;99.90
1994;DHT22;998;49.906;10.908;2022-09-30T06:07:04;7.10;99.90
1994;DHT22;998;49.906;10.908;2022-09-30T06:09:31;7.20;99.90
1994;DHT22;998;49.906;10.908;2022-09-30T06:11:58;7.30;99.90
1994;DHT22;998;49.906;10.908;2022-09-30T06:14:25;7.30;99.90
1994;DHT22;998;49.906;10.908;2022-09-30T06:16:54;7.40;99.90
1994;DHT22;998;49.906;10.908;2022-09-30T06:19:21;7.40;99.90
1994;DHT22;998;49.906;10.908;2022-09-30T06:21:48;7.30;99.90
1994;DHT22;998;49.906;10.908;2022-09-30T06:24:14;7.30;99.90
1994;DHT22;998;49.906;10.908;2022-09-30T06:26:44;7.20;99.90
1994;DHT22;998;49.906;10.908;2022-09-30T06:29:13;7.00;99.90
1994;DHT22;998;49.906;10.908;2022-09-30T06:31:40;6.90;99.90
1994;DHT22;998;49.906;10.908;2022-09-30T06:34:27;6.90;99.90
1994;DHT22;998;49.906;10.908;2022-09-30T06:37:09;6.80;99.90
1994;DHT22;998;49.906;10.908;2022-09-30T06:40:09;7.00;99.90
1994;DHT22;998;49.906;10.908;2022-09-30T06:45:58;7.10;99.90
1994;DHT22;998;49.906;10.908;2022-09-30T06:48:42;7.10;99.90
1994;DHT22;998;49.906;10.908;2022-09-30T06:51:12;7.20;99.90
1994;DHT22;998;49.906;10.908;2022-09-30T06:53:45;7.30;99.90
1994;DHT22;998;49.906;10.908;2022-09-30T07:00:16;7.50;99.90
1994;DHT22;998;49.906;10.908;2022-09-30T07:02:58;7.20;99.90
1994;DHT22;998;49.906;10.908;2022-09-30T07:05:43;7.20;99.90
1994;DHT22;998;49.906;10.908;2022-09-30T07:08:33;6.90;99.90
1994;DHT22;998;49.906;10.908;2022-09-30T07:13:52;6.80;99.90
1994;DHT22;998;49.906;10.908;2022-09-30T07:16:55;7.00;99.90
1994;DHT22;998;49.906;10.908;2022-09-30T07:19:30;7.00;99.90
1994;DHT22;998;49.906;10.908;2022-09-30T07:22:11;6.90;99.90
1994;DHT22;998;49.906;10.908;2022-09-30T07:25:39;6.70;99.90
1994;DHT22;998;49.906;10.908;2022-09-30T07:28:11;6.80;99.90
1994;DHT22;998;49.906;10.908;2022-09-30T07:32:02;7.00;99.90
1994;DHT22;998;49.906;10.908;2022-09-30T07:34:07;7.20;99.90
1994;DHT22;998;49.906;10.908;2022-09-30T07:36:41;7.30;99.90
1994;DHT22;998;49.906;10.908;2022-09-30T07:39:13;7.10;99.90
1994;DHT22;998;49.906;10.908;2022-09-30T07:41:49;7.20;99.90
1994;DHT22;998;49.906;10.908;2022-09-30T07:44:32;7.30;99.90
1994;DHT22;998;49.906;10.908;2022-09-30T07:47:16;7.30;99.90
1994;DHT22;998;49.906;10.908;2022-09-30T07:49:43;7.40;99.90
1994;DHT22;998;49.906;10.908;2022-09-30T09:05:09;8.40;99.90
1994;DHT22;998;49.906;10.908;2022-09-30T10:38:22;11.00;99.90
1994;DHT22;998;49.906;10.908;2022-09-30T10:44:41;11.30;99.90
1994;DHT22;998;49.906;10.908;2022-09-30T10:47:21;11.70;99.90
1994;DHT22;998;49.906;10.908;2022-09-30T10:49:56;11.90;99.90
1994;DHT22;998;49.906;10.908;2022-09-30T10:52:27;12.30;99.90
1994;DHT22;998;49.906;10.908;2022-09-30T10:54:58;12.60;99.90
1994;DHT22;998;49.906;10.908;2022-09-30T10:57:30;13.00;99.90
1994;DHT22;998;49.906;10.908;2022-09-30T10:59:59;13.50;99.90
1994;DHT22;998;49.906;10.908;2022-09-30T11:02:32;13.90;99.90
1994;DHT22;998;49.906;10.908;2022-09-30T11:05:09;14.20;99.90
1994;DHT22;998;49.906;10.908;2022-09-30T11:07:41;14.50;99.90
1994;DHT22;998;49.906;10.908;2022-09-30T11:10:27;15.00;99.90
1994;DHT22;998;49.906;10.908;2022-09-30T11:13:05;15.60;99.90
1994;DHT22;998;49.906;10.908;2022-09-30T11:15:44;16.10;99.90
1994;DHT22;998;49.906;10.908;2022-09-30T11:18:22;16.30;99.90
1994;DHT22;998;49.906;10.908;2022-09-30T11:20:54;16.80;99.90
1994;DHT22;998;49.906;10.908;2022-09-30T11:23:29;17.10;99.90
1994;DHT22;998;49.906;10.908;2022-09-30T11:26:10;17.00;99.90
1994;DHT22;998;49.906;10.908;2022-09-30T11:28:57;17.40;99.90
1994;DHT22;998;49.906;10.908;2022-09-30T11:31:30;17.50;99.90
1994;DHT22;998;49.906;10.908;2022-09-30T11:34:15;16.90;99.90
1994;DHT22;998;49.906;10.908;2022-09-30T11:36:51;17.20;99.90
1994;DHT22;998;49.906;10.908;2022-09-30T11:39:45;17.70;99.90
1994;DHT22;998;49.906;10.908;2022-09-30T11:42:21;17.70;99.90
1994;DHT22;998;49.906;10.908;2022-09-30T11:44:55;18.20;99.90
1994;DHT22;998;49.906;10.908;2022-09-30T11:47:40;18.50;99.90
1994;DHT22;998;49.906;10.908;2022-09-30T11:50:36;18.90;99.90
1994;DHT22;998;49.906;10.908;2022-09-30T11:53:16;19.00;99.90
1994;DHT22;998;49.906;10.908;2022-09-30T11:55:57;19.00;99.90
1994;DHT22;998;49.906;10.908;2022-09-30T11:58:40;19.30;99.90
1994;DHT22;998;49.906;10.908;2022-09-30T12:01:26;19.60;99.90
1994;DHT22;998;49.906;10.908;2022-09-30T12:04:00;19.40;99.90
1994;DHT22;998;49.906;10.908;2022-09-30T12:06:33;19.50;99.90
1994;DHT22;998;49.906;10.908;2022-09-30T12:09:15;19.70;99.90
1994;DHT22;998;49.906;10.908;2022-09-30T12:11:49;19.80;99.90
1994;DHT22;998;49.906;10.908;2022-09-30T12:14:25;19.80;99.90
1994;DHT22;998;49.906;10.908;2022-09-30T12:16:54;19.80;99.90
1994;DHT22;998;49.906;10.908;2022-09-30T12:19:28;19.80;99.20
1994;DHT22;998;49.906;10.908;2022-09-30T12:21:59;19.90;99.90
1994;DHT22;998;49.906;10.908;2022-09-30T12:24:31;19.80;99.30
1994;DHT22;998;49.906;10.908;2022-09-30T12:27:03;19.90;99.90
1994;DHT22;998;49.906;10.908;2022-09-30T12:29:35;20.10;99.90
1994;DHT22;998;49.906;10.908;2022-09-30T12:32:37;20.10;99.90
1994;DHT22;998;49.906;10.908;2022-09-30T12:35:20;20.30;99.90
1994;DHT22;998;49.906;10.908;2022-09-30T12:38:03;20.40;99.80
1994;DHT22;998;49.906;10.908;2022-09-30T12:40:54;20.50;99.70
1994;DHT22;998;49.906;10.908;2022-09-30T12:46:38;20.40;96.80
1994;DHT22;998;49.906;10.908;2022-09-30T12:49:10;19.80;95.50
1994;DHT22;998;49.906;10.908;2022-09-30T12:51:43;19.90;95.80
1994;DHT22;998;49.906;10.908;2022-09-30T12:54:14;20.00;93.80
1994;DHT22;998;49.906;10.908;2022-09-30T12:56:52;19.50;94.50
1994;DHT22;998;49.906;10.908;2022-09-30T12:59:24;19.80;94.70
1994;DHT22;998;49.906;10.908;2022-09-30T13:01:54;20.20;94.30
1994;DHT22;998;49.906;10.908;2022-09-30T13:04:31;20.20;94.00
1994;DHT22;998;49.906;10.908;2022-09-30T13:07:15;20.00;93.70
1994;DHT22;998;49.906;10.908;2022-09-30T13:12:43;19.80;94.90
1994;DHT22;998;49.906;10.908;2022-09-30T13:21:21;19.80;95.80
1994;DHT22;998;49.906;10.908;2022-09-30T13:23:49;19.70;95.40
1994;DHT22;998;49.906;10.908;2022-09-30T13:29:35;20.10;95.50
1994;DHT22;998;49.906;10.908;2022-09-30T13:32:05;20.00;94.30
1994;DHT22;998;49.906;10.908;2022-09-30T13:34:47;19.70;95.10
1994;DHT22;998;49.906;10.908;2022-09-30T13:37:37;20.00;95.60
1994;DHT22;998;49.906;10.908;2022-09-30T13:40:14;20.00;94.90
1994;DHT22;998;49.906;10.908;2022-09-30T13:42:50;20.20;93.60
1994;DHT22;998;49.906;10.908;2022-09-30T13:45:24;20.20;94.10
1994;DHT22;998;49.906;10.908;2022-09-30T13:48:01;20.00;93.90
1994;DHT22;998;49.906;10.908;2022-09-30T13:50:40;20.00;93.70
1994;DHT22;998;49.906;10.908;2022-09-30T13:53:31;20.10;94.30
1994;DHT22;998;49.906;10.908;2022-09-30T13:56:04;20.20;91.20
1994;DHT22;998;49.906;10.908;2022-09-30T13:58:48;20.00;92.10
1994;DHT22;998;49.906;10.908;2022-09-30T14:01:30;20.00;91.40
1994;DHT22;998;49.906;10.908;2022-09-30T14:04:34;19.80;90.80
1994;DHT22;998;49.906;10.908;2022-09-30T14:07:10;19.90;91.90
1994;DHT22;998;49.906;10.908;2022-09-30T14:09:50;20.00;93.60
1994;DHT22;998;49.906;10.908;2022-09-30T14:12:40;19.90;91.10
1994;DHT22;998;49.906;10.908;2022-09-30T14:15:44;19.60;91.10
1994;DHT22;998;49.906;10.908;2022-09-30T14:21:33;20.00;89.20
1994;DHT22;998;49.906;10.908;2022-09-30T14:24:08;20.10;90.10
1994;DHT22;998;49.906;10.908;2022-09-30T14:27:07;20.00;85.20
1994;DHT22;998;49.906;10.908;2022-09-30T14:29:42;19.70;86.70
1994;DHT22;998;49.906;10.908;2022-09-30T14:32:15;19.80;88.00
1994;DHT22;998;49.906;10.908;2022-09-30T14:34:48;19.50;88.20
1994;DHT22;998;49.906;10.908;2022-09-30T14:37:22;19.50;90.00
1994;DHT22;998;49.906;10.908;2022-09-30T14:39:51;19.80;89.80
1994;DHT22;998;49.906;10.908;2022-09-30T14:42:24;19.50;89.10
1994;DHT22;998;49.906;10.908;2022-09-30T14:44:55;19.60;88.70
1994;DHT22;998;49.906;10.908;2022-09-30T14:47:26;19.70;89.30
1994;DHT22;998;49.906;10.908;2022-09-30T14:49:53;19.80;88.70
1994;DHT22;998;49.906;10.908;2022-09-30T14:52:37;19.90;87.50
1994;DHT22;998;49.906;10.908;2022-09-30T14:55:19;19.80;86.00
1994;DHT22;998;49.906;10.908;2022-09-30T14:57:49;19.50;86.00
1994;DHT22;998;49.906;10.908;2022-09-30T15:00:30;19.70;88.60
1994;DHT22;998;49.906;10.908;2022-09-30T15:02:59;19.70;88.50
1994;DHT22;998;49.906;10.908;2022-09-30T15:05:37;19.80;88.20
1994;DHT22;998;49.906;10.908;2022-09-30T15:08:10;19.80;86.60
1994;DHT22;998;49.906;10.908;2022-09-30T15:10:37;19.80;86.40
1994;DHT22;998;49.906;10.908;2022-09-30T15:13:10;19.70;89.20
1994;DHT22;998;49.906;10.908;2022-09-30T15:15:39;19.60;87.70
1994;DHT22;998;49.906;10.908;2022-09-30T15:18:27;19.40;89.50
1994;DHT22;998;49.906;10.908;2022-09-30T15:20:58;19.30;89.50
1994;DHT22;998;49.906;10.908;2022-09-30T15:23:29;19.20;90.30
1994;DHT22;998;49.906;10.908;2022-09-30T15:25:58;19.20;90.60
1994;DHT22;998;49.906;10.908;2022-09-30T15:28:27;19.20;90.70
1994;DHT22;998;49.906;10.908;2022-09-30T15:30:57;19.30;90.50
1994;DHT22;998;49.906;10.908;2022-09-30T15:33:25;19.20;90.60
1994;DHT22;998;49.906;10.908;2022-09-30T15:36:07;19.20;91.10
1994;DHT22;998;49.906;10.908;2022-09-30T15:38:40;19.10;90.00
1994;DHT22;998;49.906;10.908;2022-09-30T15:41:12;18.80;90.10
1994;DHT22;998;49.906;10.908;2022-09-30T15:43:42;18.70;90.70
1994;DHT22;998;49.906;10.908;2022-09-30T15:46:26;18.70;90.60
1994;DHT22;998;49.906;10.908;2022-09-30T15:49:09;18.70;90.40
1994;DHT22;998;49.906;10.908;2022-09-30T15:51:53;18.60;90.40
1994;DHT22;998;49.906;10.908;2022-09-30T15:54:34;18.60;90.70
1994;DHT22;998;49.906;10.908;2022-09-30T15:57:38;18.40;90.90
1994;DHT22;998;49.906;10.908;2022-09-30T16:00:30;18.20;91.00
1994;DHT22;998;49.906;10.908;2022-09-30T16:03:16;18.20;91.40
1994;DHT22;998;49.906;10.908;2022-09-30T16:05:47;18.20;91.20
1994;DHT22;998;49.906;10.908;2022-09-30T16:08:19;17.90;91.50
1994;DHT22;998;49.906;10.908;2022-09-30T16:10:49;18.00;92.10
1994;DHT22;998;49.906;10.908;2022-09-30T16:13:18;18.00;92.40
1994;DHT22;998;49.906;10.908;2022-09-30T16:15:47;18.10;92.40
1994;DHT22;998;49.906;10.908;2022-09-30T16:18:20;18.00;91.90
1994;DHT22;998;49.906;10.908;2022-09-30T16:20:59;17.90;92.50
1994;DHT22;998;49.906;10.908;2022-09-30T16:23:28;17.90;92.30
1994;DHT22;998;49.906;10.908;2022-09-30T16:26:17;17.90;92.80
1994;DHT22;998;49.906;10.908;2022-09-30T16:28:45;17.90;93.20
1994;DHT22;998;49.906;10.908;2022-09-30T16:31:14;17.90;93.00
1994;DHT22;998;49.906;10.908;2022-09-30T16:33:42;17.70;93.20
1994;DHT22;998;49.906;10.908;2022-09-30T16:36:12;17.60;94.00
1994;DHT22;998;49.906;10.908;2022-09-30T16:38:39;17.60;93.30
1994;DHT22;998;49.906;10.908;2022-09-30T16:41:10;17.40;93.70
1994;DHT22;998;49.906;10.908;2022-09-30T17:01:48;17.00;96.00
1994;DHT22;998;49.906;10.908;2022-09-30T22:44:00;9.70;99.90
1994;DHT22;998;49.906;10.908;2022-09-30T22:46:27;9.60;99.90
1994;DHT22;998;49.906;10.908;2022-09-30T22:48:54;9.50;99.90
1994;DHT22;998;49.906;10.908;2022-09-30T22:51:23;9.50;99.90
1994;DHT22;998;49.906;10.908;2022-09-30T22:53:53;9.40;99.90
1994;DHT22;998;49.906;10.908;2022-09-30T22:56:20;9.30;99.90
1994;DHT22;998;49.906;10.908;2022-09-30T22:58:47;9.30;99.90
1994;DHT22;998;49.906;10.908;2022-09-30T23:01:16;9.30;99.90
1994;DHT22;998;49.906;10.908;2022-09-30T23:03:42;9.30;99.90
1994;DHT22;998;49.906;10.908;2022-09-30T23:06:10;9.30;99.90
1994;DHT22;998;49.906;10.908;2022-09-30T23:08:37;9.20;99.90
1994;DHT22;998;49.906;10.908;2022-09-30T23:11:07;9.20;99.90
1994;DHT22;998;49.906;10.908;2022-09-30T23:13:35;9.00;99.90
1994;DHT22;998;49.906;10.908;2022-09-30T23:16:03;8.90;99.90
1994;DHT22;998;49.906;10.908;2022-09-30T23:18:33;8.70;99.90
1994;DHT22;998;49.906;10.908;2022-09-30T23:21:01;8.90;99.90
1994;DHT22;998;49.906;10.908;2022-09-30T23:23:29;8.70;99.90
1994;DHT22;998;49.906;10.908;2022-09-30T23:25:58;8.80;99.90
1994;DHT22;998;49.906;10.908;2022-09-30T23:28:25;8.80;99.90
1994;DHT22;998;49.906;10.908;2022-09-30T23:30:52;8.80;99.90
1994;DHT22;998;49.906;10.908;2022-09-30T23:33:19;8.70;99.90
1994;DHT22;998;49.906;10.908;2022-09-30T23:35:47;8.80;99.90
1994;DHT22;998;49.906;10.908;2022-09-30T23:38:14;8.80;99.90
1994;DHT22;998;49.906;10.908;2022-09-30T23:40:42;8.70;99.90
1994;DHT22;998;49.906;10.908;2022-09-30T23:43:10;8.70;99.90
1994;DHT22;998;49.906;10.908;2022-09-30T23:45:37;8.80;99.90
1994;DHT22;998;49.906;10.908;2022-09-30T23:48:04;8.80;99.90
1994;DHT22;998;49.906;10.908;2022-09-30T23:50:31;8.90;99.90
1994;DHT22;998;49.906;10.908;2022-09-30T23:52:59;9.00;99.90
1994;DHT22;998;49.906;10.908;2022-09-30T23:55:27;8.90;99.90
1994;DHT22;998;49.906;10.908;2022-09-30T23:57:57;8.90;99.90
